createdAt,value
2018-05-23T00:02:12.046Z,17.90
2018-05-23T00:04:39.756Z,17.80
2018-05-23T00:07:05.919Z,17.90
2018-05-23T00:09:33.579Z,17.80
2018-05-23T00:11:59.789Z,17.70
2018-05-23T00:14:25.991Z,17.70
2018-05-23T00:16:52.190Z,17.60
2018-05-23T00:19:19.181Z,17.40
2018-05-23T00:21:45.381Z,17.30
2018-05-23T00:24:11.602Z,17.30
2018-05-23T00:26:37.836Z,17.30
2018-05-23T00:29:03.976Z,17.80
2018-05-23T00:31:30.184Z,17.60
2018-05-23T00:33:56.354Z,17.60
2018-05-23T00:36:22.556Z,17.70
2018-05-23T00:38:48.726Z,17.70
2018-05-23T00:41:14.941Z,17.70
2018-05-23T00:43:41.114Z,17.70
2018-05-23T00:46:08.057Z,17.80
2018-05-23T00:48:34.997Z,17.80
2018-05-23T00:51:01.981Z,17.70
2018-05-23T00:53:28.208Z,17.70
2018-05-23T00:55:54.814Z,17.80
2018-05-23T00:58:21.779Z,17.80
2018-05-23T01:00:48.038Z,17.80
2018-05-23T01:03:14.270Z,17.80
2018-05-23T01:05:40.441Z,17.80
2018-05-23T01:08:06.626Z,17.70
2018-05-23T01:10:32.831Z,17.50
2018-05-23T01:12:59.075Z,17.60
2018-05-23T01:15:25.225Z,17.60
2018-05-23T01:17:51.444Z,17.50
2018-05-23T01:20:17.660Z,17.50
2018-05-23T01:22:43.818Z,17.50
2018-05-23T01:25:09.975Z,17.20
2018-05-23T01:27:36.917Z,17.10
2018-05-23T01:30:03.879Z,17.10
2018-05-23T01:32:30.075Z,17.10
2018-05-23T01:34:56.269Z,17.20
2018-05-23T01:37:22.490Z,17.20
2018-05-23T01:40:03.574Z,17.40
2018-05-23T01:42:30.495Z,17.40
2018-05-23T01:44:56.695Z,18.50
2018-05-23T01:47:23.653Z,17.30
2018-05-23T01:49:50.637Z,17.30
2018-05-23T01:52:16.780Z,17.40
2018-05-23T01:54:42.955Z,17.50
2018-05-23T01:57:09.884Z,17.50
2018-05-23T01:59:37.465Z,17.50
2018-05-23T02:02:04.359Z,17.40
2018-05-23T02:04:30.520Z,17.30
2018-05-23T02:06:58.138Z,17.30
2018-05-23T02:09:24.371Z,17.40
2018-05-23T02:11:50.572Z,17.40
2018-05-23T02:14:16.760Z,17.40
2018-05-23T02:16:42.944Z,17.20
2018-05-23T02:19:09.140Z,17.00
2018-05-23T02:21:36.090Z,16.90
2018-05-23T02:24:02.257Z,16.90
2018-05-23T02:26:28.441Z,17.00
2018-05-23T02:28:55.329Z,17.20
2018-05-23T02:31:36.454Z,17.20
2018-05-23T02:34:03.381Z,17.40
2018-05-23T02:36:29.579Z,17.40
2018-05-23T02:38:55.728Z,17.40
2018-05-23T02:41:21.882Z,17.40
2018-05-23T02:43:48.794Z,17.40
2018-05-23T02:46:18.961Z,17.40
2018-05-23T02:48:45.867Z,17.40
2018-05-23T02:51:12.029Z,17.40
2018-05-23T02:53:38.980Z,17.30
2018-05-23T02:56:05.186Z,17.30
2018-05-23T02:58:31.381Z,17.40
2018-05-23T03:00:57.529Z,17.40
2018-05-23T03:03:23.705Z,17.40
2018-05-23T03:05:49.904Z,17.40
2018-05-23T03:08:16.832Z,17.30
2018-05-23T03:10:43.756Z,17.30
2018-05-23T03:13:10.694Z,17.30
2018-05-23T03:15:36.918Z,17.40
2018-05-23T03:18:09.289Z,17.30
2018-05-23T03:20:35.465Z,17.30
2018-05-23T03:23:01.686Z,17.40
2018-05-23T03:25:28.588Z,17.40
2018-05-23T03:27:54.807Z,17.40
2018-05-23T03:30:20.964Z,17.30
2018-05-23T03:32:47.163Z,17.20
2018-05-23T03:35:13.357Z,17.10
2018-05-23T03:37:40.248Z,16.80
2018-05-23T03:40:06.450Z,16.80
2018-05-23T03:42:32.715Z,16.80
2018-05-23T03:44:58.934Z,16.80
2018-05-23T03:47:25.099Z,16.90
2018-05-23T03:49:52.784Z,17.10
2018-05-23T03:52:19.710Z,17.20
2018-05-23T03:54:45.908Z,17.20
2018-05-23T03:57:12.074Z,17.10
2018-05-23T03:59:51.287Z,16.90
2018-05-23T04:02:44.626Z,17.10
2018-05-23T04:05:23.236Z,17.10
2018-05-23T04:07:49.389Z,17.20
2018-05-23T04:10:15.590Z,17.20
2018-05-23T04:12:41.751Z,17.20
2018-05-23T04:15:07.952Z,17.10
2018-05-23T04:17:34.913Z,17.00
2018-05-23T04:20:01.141Z,17.00
2018-05-23T04:22:27.322Z,16.90
2018-05-23T04:24:53.556Z,17.00
2018-05-23T04:27:20.512Z,17.20
2018-05-23T04:29:46.740Z,17.30
2018-05-23T04:32:12.905Z,17.20
2018-05-23T04:34:39.967Z,17.20
2018-05-23T04:37:06.183Z,17.40
2018-05-23T04:39:32.367Z,17.40
2018-05-23T04:41:59.688Z,17.60
2018-05-23T04:44:26.236Z,17.60
2018-05-23T04:49:20.323Z,17.60
2018-05-23T04:51:46.541Z,17.60
2018-05-23T04:54:12.739Z,17.70
2018-05-23T04:56:38.918Z,17.60
2018-05-23T04:59:05.867Z,17.60
2018-05-23T05:01:32.837Z,17.50
2018-05-23T05:03:59.014Z,17.50
2018-05-23T05:06:25.224Z,17.90
2018-05-23T05:08:51.400Z,17.50
2018-05-23T05:11:18.357Z,17.50
2018-05-23T05:13:45.304Z,17.50
2018-05-23T05:16:11.560Z,17.60
2018-05-23T05:18:37.736Z,17.70
2018-05-23T05:21:03.941Z,17.70
2018-05-23T05:23:30.133Z,17.80
2018-05-23T05:25:56.332Z,17.90
2018-05-23T05:28:23.252Z,18.00
2018-05-23T05:30:49.404Z,18.00
2018-05-23T05:33:16.340Z,18.00
2018-05-23T05:35:42.536Z,17.90
2018-05-23T05:38:08.755Z,17.90
2018-05-23T05:40:35.740Z,18.00
2018-05-23T05:43:01.897Z,18.00
2018-05-23T05:45:29.531Z,18.00
2018-05-23T05:47:56.601Z,17.90
2018-05-23T05:50:24.271Z,17.90
2018-05-23T05:52:51.180Z,17.70
2018-05-23T05:55:17.372Z,17.60
2018-05-23T05:57:43.594Z,17.50
2018-05-23T06:00:10.127Z,17.60
2018-05-23T06:02:36.328Z,17.70
2018-05-23T06:05:03.316Z,17.70
2018-05-23T06:07:29.484Z,17.70
2018-05-23T06:09:55.801Z,17.80
2018-05-23T06:12:21.941Z,17.80
2018-05-23T06:14:48.175Z,17.90
2018-05-23T06:17:14.432Z,18.00
2018-05-23T06:19:41.357Z,18.10
2018-05-23T06:22:08.327Z,18.10
2018-05-23T06:24:49.436Z,18.10
2018-05-23T06:27:15.649Z,18.00
2018-05-23T06:29:41.881Z,18.00
2018-05-23T06:32:08.063Z,18.00
2018-05-23T06:34:34.242Z,18.10
2018-05-23T06:37:00.737Z,18.10
2018-05-23T06:39:27.703Z,18.00
2018-05-23T06:41:53.908Z,18.00
2018-05-23T06:44:21.990Z,18.00
2018-05-23T06:46:49.866Z,18.00
2018-05-23T06:49:18.007Z,18.10
2018-05-23T06:51:44.293Z,18.10
2018-05-23T06:54:10.497Z,18.20
2018-05-23T06:56:37.423Z,18.20
2018-05-23T06:59:03.615Z,18.10
2018-05-23T07:01:29.805Z,18.10
2018-05-23T07:03:56.022Z,18.10
2018-05-23T07:06:22.984Z,18.10
2018-05-23T07:08:49.181Z,18.10
2018-05-23T07:11:15.597Z,18.00
2018-05-23T07:13:42.425Z,18.00
2018-05-23T07:16:08.710Z,18.10
2018-05-23T07:18:34.903Z,18.10
2018-05-23T07:21:01.993Z,18.00
2018-05-23T07:23:28.172Z,18.00
2018-05-23T07:25:54.438Z,18.00
2018-05-23T07:28:20.580Z,18.00
2018-05-23T07:30:46.752Z,18.00
2018-05-23T07:33:12.933Z,17.90
2018-05-23T07:35:39.098Z,17.90
2018-05-23T07:38:05.302Z,17.90
2018-05-23T07:40:31.531Z,17.90
2018-05-23T07:42:57.725Z,18.00
2018-05-23T07:45:25.426Z,17.90
2018-05-23T07:47:51.617Z,17.90
2018-05-23T07:50:18.543Z,18.00
2018-05-23T07:52:44.725Z,18.10
2018-05-23T07:55:10.962Z,18.10
2018-05-23T07:57:37.152Z,18.10
2018-05-23T08:00:04.112Z,18.00
2018-05-23T08:02:30.997Z,18.00
2018-05-23T08:04:57.178Z,18.10
2018-05-23T08:07:24.064Z,18.20
2018-05-23T08:09:50.245Z,18.20
2018-05-23T08:12:17.183Z,18.20
2018-05-23T08:14:44.136Z,18.10
2018-05-23T08:17:11.118Z,18.10
2018-05-23T08:19:37.675Z,18.00
2018-05-23T08:22:03.878Z,18.10
2018-05-23T08:24:30.203Z,18.10
2018-05-23T08:26:56.269Z,18.10
2018-05-23T08:29:22.437Z,18.30
2018-05-23T08:31:49.392Z,18.10
2018-05-23T08:34:16.334Z,17.90
2018-05-23T08:36:43.300Z,18.00
2018-05-23T08:39:09.491Z,17.90
2018-05-23T08:41:36.443Z,18.20
2018-05-23T08:44:03.401Z,18.20
2018-05-23T08:46:30.314Z,18.30
2018-05-23T08:48:56.567Z,18.30
2018-05-23T08:51:23.616Z,18.40
2018-05-23T08:53:50.524Z,18.40
2018-05-23T08:56:16.772Z,18.50
2018-05-23T08:58:43.029Z,18.60
2018-05-23T09:01:09.204Z,18.50
2018-05-23T09:03:35.404Z,18.40
2018-05-23T09:06:01.637Z,18.50
2018-05-23T09:08:27.825Z,18.50
2018-05-23T09:10:54.763Z,18.60
2018-05-23T09:13:21.014Z,18.70
2018-05-23T09:15:47.964Z,18.70
2018-05-23T09:18:14.152Z,18.80
2018-05-23T09:20:40.356Z,18.80
2018-05-23T09:23:06.599Z,19.00
2018-05-23T09:25:32.887Z,19.00
2018-05-23T09:27:59.818Z,19.20
2018-05-23T09:30:26.759Z,19.50
2018-05-23T09:32:53.657Z,19.70
2018-05-23T09:35:19.840Z,19.70
2018-05-23T09:37:46.753Z,20.10
2018-05-23T09:40:13.673Z,20.40
2018-05-23T09:42:39.857Z,20.50
2018-05-23T09:45:06.838Z,21.50
2018-05-23T09:47:33.716Z,22.20
2018-05-23T09:49:59.904Z,22.20
2018-05-23T09:52:26.135Z,23.10
2018-05-23T09:54:52.310Z,23.90
2018-05-23T09:57:18.568Z,24.20
2018-05-23T09:59:45.482Z,24.50
2018-05-23T10:02:11.681Z,24.80
2018-05-23T10:04:37.855Z,25.00
2018-05-23T10:07:04.825Z,25.20
2018-05-23T10:09:31.373Z,25.40
2018-05-23T10:11:57.547Z,25.70
2018-05-23T10:14:23.720Z,26.00
2018-05-23T10:16:49.973Z,26.20
2018-05-23T10:19:16.121Z,26.40
2018-05-23T10:21:43.500Z,26.40
2018-05-23T10:24:10.434Z,26.50
2018-05-23T10:26:36.625Z,26.70
2018-05-23T10:29:02.830Z,26.70
2018-05-23T10:31:29.030Z,26.80
2018-05-23T10:33:56.092Z,27.00
2018-05-23T10:36:22.988Z,27.10
2018-05-23T10:38:49.239Z,27.20
2018-05-23T10:41:16.943Z,27.30
2018-05-23T10:43:43.907Z,27.40
2018-05-23T10:46:10.122Z,27.50
2018-05-23T10:48:36.256Z,27.30
2018-05-23T10:51:02.462Z,27.30
2018-05-23T10:53:29.478Z,26.80
2018-05-23T10:55:55.640Z,26.80
2018-05-23T10:58:21.846Z,27.10
2018-05-23T11:00:48.071Z,27.30
2018-05-23T11:03:15.795Z,27.30
2018-05-23T11:05:42.023Z,27.40
2018-05-23T11:08:08.235Z,27.70
2018-05-23T11:10:34.449Z,27.60
2018-05-23T11:13:00.704Z,27.70
2018-05-23T11:15:26.998Z,27.70
2018-05-23T11:17:53.989Z,27.60
2018-05-23T11:20:20.210Z,27.60
2018-05-23T11:22:46.757Z,27.60
2018-05-23T11:25:14.144Z,27.50
2018-05-23T11:27:40.380Z,27.50
2018-05-23T11:30:06.599Z,27.50
2018-05-23T11:32:32.821Z,27.70
2018-05-23T11:34:59.411Z,27.80
2018-05-23T11:37:25.604Z,27.60
2018-05-23T11:39:52.581Z,27.30
2018-05-23T11:42:18.801Z,27.20
2018-05-23T11:44:45.044Z,27.30
2018-05-23T11:47:11.658Z,27.30
2018-05-23T11:49:38.614Z,27.40
2018-05-23T11:52:05.655Z,27.50
2018-05-23T11:54:31.764Z,27.40
2018-05-23T11:56:57.988Z,27.30
2018-05-23T11:59:24.889Z,27.00
2018-05-23T12:01:51.222Z,26.90
2018-05-23T12:04:17.368Z,27.00
2018-05-23T12:06:44.813Z,26.80
2018-05-23T12:09:11.671Z,26.80
2018-05-23T12:11:37.996Z,27.00
2018-05-23T12:14:04.268Z,27.00
2018-05-23T12:16:31.173Z,27.00
2018-05-23T12:18:57.488Z,26.90
2018-05-23T12:21:24.445Z,27.00
2018-05-23T12:23:50.756Z,27.00
2018-05-23T12:26:16.963Z,27.20
2018-05-23T12:28:44.258Z,27.00
2018-05-23T12:31:10.437Z,26.70
2018-05-23T12:33:37.423Z,26.70
2018-05-23T12:36:03.669Z,26.80
2018-05-23T12:38:29.855Z,26.80
2018-05-23T12:40:56.590Z,26.90
2018-05-23T12:43:29.501Z,26.90
2018-05-23T12:45:55.706Z,26.70
2018-05-23T12:48:22.681Z,26.70
2018-05-23T12:50:48.861Z,27.00
2018-05-23T12:53:15.036Z,27.00
2018-05-23T12:55:41.294Z,27.20
2018-05-23T12:58:08.200Z,27.30
2018-05-23T13:00:34.414Z,27.20
2018-05-23T13:03:01.375Z,27.10
2018-05-23T13:05:27.649Z,27.00
2018-05-23T13:07:53.875Z,27.00
2018-05-23T13:10:20.185Z,27.30
2018-05-23T13:12:46.415Z,27.60
2018-05-23T13:15:12.668Z,27.30
2018-05-23T13:17:39.820Z,27.50
2018-05-23T13:20:06.048Z,27.70
2018-05-23T13:22:32.252Z,27.70
2018-05-23T13:24:58.464Z,27.40
2018-05-23T13:27:24.638Z,27.20
2018-05-23T13:29:50.847Z,27.10
2018-05-23T13:32:17.091Z,27.00
2018-05-23T13:34:43.322Z,26.90
2018-05-23T13:37:09.520Z,26.80
2018-05-23T13:39:35.696Z,26.80
2018-05-23T13:42:01.970Z,26.80
2018-05-23T13:44:28.623Z,26.90
2018-05-23T13:46:54.805Z,27.00
2018-05-23T13:49:21.759Z,27.10
2018-05-23T13:51:48.779Z,27.00
2018-05-23T13:54:14.979Z,26.80
2018-05-23T13:56:41.206Z,26.70
2018-05-23T13:59:07.396Z,26.60
2018-05-23T14:01:34.358Z,26.20
2018-05-23T14:04:01.327Z,26.00
2018-05-23T14:06:27.508Z,26.00
2018-05-23T14:08:54.437Z,26.00
2018-05-23T14:11:20.643Z,26.00
2018-05-23T14:13:46.861Z,25.80
2018-05-23T14:16:13.065Z,26.00
2018-05-23T14:18:39.309Z,26.40
2018-05-23T14:21:05.521Z,26.60
2018-05-23T14:23:31.748Z,26.90
2018-05-23T14:25:57.945Z,26.80
2018-05-23T14:28:24.988Z,26.70
2018-05-23T14:30:51.136Z,26.50
2018-05-23T14:33:18.073Z,26.40
2018-05-23T14:35:45.062Z,26.40
2018-05-23T14:38:11.987Z,26.40
2018-05-23T14:40:38.221Z,26.20
2018-05-23T14:43:04.390Z,26.20
2018-05-23T14:45:30.588Z,26.00
2018-05-23T14:47:56.842Z,25.90
2018-05-23T14:50:23.042Z,25.80
2018-05-23T14:52:49.246Z,25.10
2018-05-23T14:55:16.180Z,25.60
2018-05-23T14:57:43.861Z,25.50
2018-05-23T15:00:10.072Z,25.40
2018-05-23T15:02:37.333Z,25.20
2018-05-23T15:05:04.785Z,25.20
2018-05-23T15:07:32.611Z,25.10
2018-05-23T15:09:58.833Z,25.00
2018-05-23T15:12:25.028Z,24.90
2018-05-23T15:14:51.219Z,24.80
2018-05-23T15:17:17.473Z,24.80
2018-05-23T15:19:44.515Z,24.80
2018-05-23T15:22:10.664Z,24.70
2018-05-23T15:24:36.860Z,24.70
2018-05-23T15:27:03.093Z,24.70
2018-05-23T15:29:30.051Z,24.50
2018-05-23T15:31:56.954Z,24.40
2018-05-23T15:34:23.157Z,24.20
2018-05-23T15:36:49.410Z,24.10
2018-05-23T15:39:15.618Z,23.90
2018-05-23T15:41:42.612Z,23.80
2018-05-23T15:44:09.133Z,23.60
2018-05-23T15:46:35.390Z,23.60
2018-05-23T15:49:02.411Z,23.40
2018-05-23T15:51:28.620Z,23.40
2018-05-23T15:53:54.839Z,23.30
2018-05-23T15:56:21.030Z,23.20
2018-05-23T15:58:47.260Z,23.10
2018-05-23T16:01:14.222Z,23.10
2018-05-23T16:03:40.483Z,23.00
2018-05-23T16:06:06.680Z,23.00
2018-05-23T16:08:32.902Z,22.90
2018-05-23T16:10:59.077Z,22.80
2018-05-23T16:13:25.293Z,22.90
2018-05-23T16:15:51.491Z,22.80
2018-05-23T16:18:17.754Z,22.80
2018-05-23T16:20:43.964Z,22.80
2018-05-23T16:23:10.182Z,22.80
2018-05-23T16:25:36.383Z,22.90
2018-05-23T16:28:03.372Z,22.80
2018-05-23T16:30:29.563Z,22.70
2018-05-23T16:32:56.473Z,22.70
2018-05-23T16:35:22.757Z,22.60
2018-05-23T16:37:49.000Z,22.60
2018-05-23T16:40:15.217Z,22.60
2018-05-23T16:42:42.410Z,22.50
2018-05-23T16:45:08.650Z,22.50
2018-05-23T16:47:34.839Z,22.40
2018-05-23T16:50:01.807Z,22.30
2018-05-23T16:52:28.071Z,22.30
2018-05-23T16:54:54.255Z,22.30
2018-05-23T16:57:20.477Z,22.30
2018-05-23T16:59:47.504Z,22.30
2018-05-23T17:02:13.699Z,22.20
2018-05-23T17:04:39.914Z,22.20
2018-05-23T17:07:06.190Z,22.20
2018-05-23T17:09:32.349Z,22.20
2018-05-23T17:11:58.573Z,22.20
2018-05-23T17:14:24.848Z,22.20
2018-05-23T17:16:51.139Z,22.30
2018-05-23T17:19:17.354Z,22.20
2018-05-23T17:21:43.610Z,22.10
2018-05-23T17:24:09.904Z,22.10
2018-05-23T17:26:36.144Z,22.10
2018-05-23T17:29:02.422Z,22.00
2018-05-23T17:31:28.654Z,21.90
2018-05-23T17:33:54.838Z,21.90
2018-05-23T17:36:22.147Z,21.90
2018-05-23T17:38:49.044Z,21.80
2018-05-23T17:41:15.244Z,21.80
2018-05-23T17:43:41.448Z,21.80
2018-05-23T17:46:08.396Z,21.70
2018-05-23T17:48:35.329Z,21.60
2018-05-23T17:51:01.536Z,21.60
2018-05-23T17:53:27.770Z,21.60
2018-05-23T17:55:54.037Z,21.60
2018-05-23T17:58:20.995Z,21.50
2018-05-23T18:00:47.246Z,21.50
2018-05-23T18:03:13.492Z,21.50
2018-05-23T18:05:39.723Z,21.50
2018-05-23T18:08:05.959Z,21.50
2018-05-23T18:10:32.190Z,21.50
2018-05-23T18:12:58.475Z,21.50
2018-05-23T18:15:25.793Z,21.40
2018-05-23T18:17:52.106Z,21.40
2018-05-23T18:20:18.193Z,21.40
2018-05-23T18:22:44.355Z,21.40
2018-05-23T18:25:10.589Z,21.40
2018-05-23T18:27:36.801Z,21.40
2018-05-23T18:30:03.044Z,21.30
2018-05-23T18:32:29.235Z,21.30
2018-05-23T18:34:55.468Z,21.30
2018-05-23T18:37:21.649Z,21.40
2018-05-23T18:39:48.824Z,21.30
2018-05-23T18:42:15.196Z,21.30
2018-05-23T18:44:41.501Z,21.30
2018-05-23T18:47:07.686Z,21.30
2018-05-23T20:11:30.355Z,20.60
2018-05-23T20:13:56.729Z,20.50
2018-05-23T20:16:23.011Z,20.50
2018-05-23T20:18:49.328Z,20.50
2018-05-23T20:21:15.588Z,20.50
2018-05-23T20:23:41.887Z,20.50
2018-05-23T20:26:08.941Z,20.40
2018-05-23T20:28:35.483Z,20.40
2018-05-23T20:31:01.792Z,20.80
2018-05-23T20:33:28.616Z,20.40
2018-05-23T20:35:55.741Z,20.40
2018-05-23T20:38:21.975Z,20.40
2018-05-23T20:40:48.177Z,20.30
2018-05-23T20:43:14.486Z,20.30
2018-05-23T20:45:41.717Z,20.30
2018-05-23T20:48:10.496Z,20.30
2018-05-23T20:50:37.622Z,20.20
2018-05-23T20:53:03.839Z,20.20
2018-05-23T20:55:30.074Z,20.20
2018-05-23T20:57:56.264Z,20.20
2018-05-23T21:00:23.253Z,20.20
2018-05-23T21:02:49.476Z,20.20
2018-05-23T21:05:15.806Z,20.20
2018-05-23T21:07:41.978Z,20.20
2018-05-23T21:10:08.914Z,20.20
2018-05-23T21:15:03.116Z,20.20
2018-05-23T21:17:29.434Z,20.20
2018-05-23T21:19:55.764Z,20.20
2018-05-23T21:22:21.978Z,20.20
2018-05-23T21:24:48.177Z,20.20
2018-05-23T21:27:15.160Z,20.10
2018-05-23T21:29:41.324Z,20.10
2018-05-23T21:32:08.292Z,20.10
2018-05-23T21:34:34.616Z,20.10
2018-05-23T21:37:01.182Z,20.10
2018-05-23T21:39:27.387Z,20.10
2018-05-23T21:41:53.778Z,20.10
2018-05-23T21:44:20.012Z,20.10
2018-05-23T21:46:46.216Z,20.10
2018-05-23T21:49:12.454Z,20.20
2018-05-23T21:51:38.644Z,20.20
2018-05-23T21:54:04.841Z,20.20
2018-05-23T21:56:31.812Z,20.20
2018-05-23T21:58:58.038Z,20.10
2018-05-23T22:01:24.962Z,20.20
2018-05-23T22:03:51.917Z,20.10
2018-05-23T22:06:18.944Z,20.10
2018-05-23T22:08:46.264Z,20.10
2018-05-23T22:11:12.541Z,20.10
2018-05-23T22:13:39.485Z,20.10
2018-05-23T22:16:06.430Z,20.20
2018-05-23T22:18:33.375Z,20.10
2018-05-23T22:21:00.310Z,20.20
2018-05-23T22:23:27.970Z,20.20
2018-05-23T22:25:54.330Z,20.20
2018-05-23T22:28:21.262Z,20.20
2018-05-23T22:30:48.235Z,20.10
2018-05-23T22:33:14.484Z,20.10
2018-05-23T22:35:40.684Z,20.10
2018-05-23T22:38:06.946Z,20.10
2018-05-23T22:40:33.126Z,20.10
2018-05-23T22:45:27.292Z,20.20
2018-05-23T22:47:53.545Z,20.10
2018-05-23T22:50:19.804Z,20.10
2018-05-23T22:52:46.018Z,20.10
2018-05-23T22:55:12.999Z,20.00
2018-05-23T22:57:39.315Z,20.00
2018-05-23T23:00:05.528Z,20.00
2018-05-23T23:02:32.572Z,19.90
2018-05-23T23:04:59.510Z,20.00
2018-05-23T23:07:26.471Z,19.90
2018-05-23T23:09:53.401Z,19.90
2018-05-23T23:12:20.377Z,19.90
2018-05-23T23:14:46.530Z,19.90
2018-05-23T23:17:13.108Z,19.90
2018-05-23T23:19:39.305Z,19.90
2018-05-23T23:22:05.564Z,19.90
2018-05-23T23:24:31.740Z,19.90
2018-05-23T23:26:58.018Z,19.80
2018-05-23T23:29:24.286Z,19.90
2018-05-23T23:31:51.288Z,19.90
2018-05-23T23:34:19.195Z,19.90
2018-05-23T23:36:46.147Z,19.90
2018-05-23T23:39:12.441Z,19.90
2018-05-23T23:41:38.706Z,19.90
2018-05-23T23:44:04.898Z,19.80
2018-05-23T23:46:31.098Z,19.80
2018-05-23T23:48:57.294Z,19.90
2018-05-23T23:51:23.514Z,19.80
2018-05-23T23:53:50.473Z,19.80
2018-05-23T23:56:16.647Z,19.80
2018-05-23T23:58:42.864Z,19.80
